createdAt,value
2022-08-09T00:01:54.093Z,12.67
2022-08-09T00:04:34.624Z,12.45
2022-08-09T00:07:03.908Z,12.45
2022-08-09T00:09:39.039Z,12.43
2022-08-09T00:12:07.996Z,12.56
2022-08-09T00:14:38.221Z,12.56
2022-08-09T00:17:08.720Z,12.66
2022-08-09T00:19:56.600Z,12.70
2022-08-09T00:22:25.733Z,12.71
2022-08-09T00:25:04.031Z,12.79
2022-08-09T00:27:43.076Z,12.88
2022-08-09T00:30:25.061Z,12.76
2022-08-09T00:32:56.044Z,12.73
2022-08-09T00:35:26.124Z,12.66
2022-08-09T00:37:57.653Z,12.53
2022-08-09T00:40:30.096Z,12.55
2022-08-09T00:44:10.787Z,12.54
2022-08-09T00:45:50.536Z,12.36
2022-08-09T00:48:23.670Z,12.27
2022-08-09T00:50:53.714Z,12.16
2022-08-09T00:53:24.014Z,12.25
2022-08-09T00:56:04.547Z,12.25
2022-08-09T00:58:35.963Z,12.05
2022-08-09T01:01:09.102Z,12.04
2022-08-09T01:03:51.863Z,11.97
2022-08-09T01:06:53.221Z,11.87
2022-08-09T01:09:23.860Z,11.94
2022-08-09T01:11:56.919Z,11.96
2022-08-09T01:14:29.984Z,12.05
2022-08-09T01:17:02.868Z,12.18
2022-08-09T01:19:57.034Z,12.23
2022-08-09T01:24:02.809Z,12.24
2022-08-09T01:26:21.530Z,12.20
2022-08-09T01:28:56.292Z,11.76
2022-08-09T01:32:39.057Z,11.60
2022-08-09T01:34:18.363Z,11.69
2022-08-09T01:36:49.415Z,11.69
2022-08-09T01:39:18.257Z,11.48
2022-08-09T01:41:56.137Z,11.58
2022-08-09T01:44:31.773Z,11.85
2022-08-09T01:47:01.515Z,12.02
2022-08-09T01:49:31.984Z,11.98
2022-08-09T01:52:10.522Z,11.80
2022-08-09T01:54:42.248Z,11.69
2022-08-09T01:57:14.748Z,11.58
2022-08-09T01:59:51.839Z,11.53
2022-08-09T02:02:21.854Z,11.66
2022-08-09T02:04:51.031Z,11.85
2022-08-09T02:08:38.991Z,11.70
2022-08-09T02:10:12.679Z,11.62
2022-08-09T02:12:40.323Z,11.59
2022-08-09T02:15:11.942Z,11.42
2022-08-09T02:18:01.066Z,11.35
2022-08-09T02:20:35.108Z,11.46
2022-08-09T02:23:07.174Z,11.56
2022-08-09T02:25:42.318Z,11.50
2022-08-09T02:28:17.752Z,11.46
2022-08-09T02:30:49.465Z,11.30
2022-08-09T02:33:23.104Z,11.10
2022-08-09T02:36:10.549Z,10.89
2022-08-09T02:38:47.485Z,10.71
2022-08-09T02:41:17.824Z,10.95
2022-08-09T02:43:55.158Z,11.00
2022-08-09T02:46:27.377Z,11.23
2022-08-09T02:48:57.339Z,11.29
2022-08-09T02:51:26.523Z,11.45
2022-08-09T02:54:00.327Z,11.56
2022-08-09T02:56:29.485Z,11.62
2022-08-09T02:58:58.030Z,11.56
2022-08-09T03:01:29.496Z,11.53
2022-08-09T03:04:19.413Z,11.52
2022-08-09T03:06:54.337Z,11.60
2022-08-09T03:09:33.459Z,11.65
2022-08-09T03:12:05.642Z,11.73
2022-08-09T03:14:38.704Z,11.76
2022-08-09T03:17:20.465Z,11.75
2022-08-09T03:20:02.774Z,11.84
2022-08-09T03:22:41.789Z,11.88
2022-08-09T03:25:26.544Z,11.85
2022-08-09T03:28:02.919Z,11.79
2022-08-09T03:30:36.544Z,11.72
2022-08-09T03:33:17.428Z,11.77
2022-08-09T03:36:13.570Z,11.74
2022-08-09T03:38:42.873Z,11.94
2022-08-09T03:41:14.681Z,12.07
2022-08-09T03:43:43.018Z,12.03
2022-08-09T03:46:31.238Z,12.08
2022-08-09T03:49:04.368Z,12.00
2022-08-09T03:51:56.288Z,11.89
2022-08-09T03:54:29.306Z,11.98
2022-08-09T03:56:59.874Z,11.91
2022-08-09T03:59:53.514Z,12.05
2022-08-09T04:02:26.165Z,12.18
2022-08-09T04:04:58.672Z,12.07
2022-08-09T04:07:33.654Z,12.14
2022-08-09T04:10:15.550Z,12.17
2022-08-09T04:12:49.867Z,12.27
2022-08-09T04:15:42.648Z,12.30
2022-08-09T04:18:08.682Z,12.14
2022-08-09T04:20:38.191Z,12.26
2022-08-09T04:23:09.971Z,12.37
2022-08-09T04:25:38.430Z,12.38
2022-08-09T04:28:07.106Z,12.56
2022-08-09T04:30:34.924Z,12.62
2022-08-09T04:33:03.141Z,12.70
2022-08-09T04:35:32.954Z,12.80
2022-08-09T04:38:03.633Z,12.90
2022-08-09T04:40:46.139Z,13.04
2022-08-09T04:43:14.223Z,13.17
2022-08-09T04:45:53.830Z,13.14
2022-08-09T04:48:23.799Z,13.24
2022-08-09T04:51:01.150Z,13.33
2022-08-09T04:53:31.518Z,13.52
2022-08-09T04:56:00.463Z,13.63
2022-08-09T04:58:29.751Z,13.76
2022-08-09T05:00:59.591Z,13.81
2022-08-09T05:03:41.086Z,14.07
2022-08-09T05:06:11.898Z,14.27
2022-08-09T05:08:51.156Z,14.45
2022-08-09T05:11:19.012Z,14.60
2022-08-09T05:13:48.962Z,14.78
2022-08-09T05:16:16.906Z,14.90
2022-08-09T05:18:57.730Z,15.03
2022-08-09T05:21:29.827Z,15.18
2022-08-09T05:24:02.493Z,15.31
2022-08-09T05:26:36.990Z,15.41
2022-08-09T05:29:17.250Z,15.41
2022-08-09T05:31:56.845Z,15.59
2022-08-09T05:34:30.023Z,15.71
2022-08-09T05:37:01.688Z,15.73
2022-08-09T05:39:36.157Z,15.81
2022-08-09T05:42:17.812Z,15.94
2022-08-09T05:44:51.321Z,16.05
2022-08-09T05:47:21.558Z,16.12
2022-08-09T05:50:23.257Z,16.37
2022-08-09T05:52:39.207Z,16.47
2022-08-09T05:55:18.173Z,16.57
2022-08-09T05:57:50.903Z,16.68
2022-08-09T06:00:25.953Z,16.80
2022-08-09T06:02:56.949Z,16.98
2022-08-09T06:05:30.925Z,16.98
2022-08-09T06:08:13.528Z,17.17
2022-08-09T06:10:49.829Z,17.18
2022-08-09T06:13:20.526Z,17.25
2022-08-09T06:15:51.763Z,17.38
2022-08-09T06:18:23.833Z,17.55
2022-08-09T06:20:56.465Z,17.63
2022-08-09T06:23:55.406Z,17.70
2022-08-09T06:26:20.379Z,17.78
2022-08-09T06:28:50.175Z,17.78
2022-08-09T06:31:30.594Z,17.88
2022-08-09T06:33:59.851Z,17.70
2022-08-09T06:36:29.748Z,17.71
2022-08-09T06:38:58.652Z,17.99
2022-08-09T06:41:57.499Z,18.08
2022-08-09T06:44:21.548Z,18.18
2022-08-09T06:46:55.478Z,18.27
2022-08-09T06:49:44.558Z,18.51
2022-08-09T06:52:15.955Z,18.54
2022-08-09T06:54:44.184Z,18.68
2022-08-09T06:58:01.157Z,18.78
2022-08-09T07:00:51.174Z,18.76
2022-08-09T07:03:11.390Z,19.00
2022-08-09T07:05:58.199Z,19.05
2022-08-09T07:09:00.746Z,18.98
2022-08-09T07:11:34.241Z,19.16
2022-08-09T07:14:18.200Z,19.23
2022-08-09T07:16:58.544Z,19.32
2022-08-09T07:19:27.327Z,19.40
2022-08-09T07:21:57.929Z,19.43
2022-08-09T07:24:32.520Z,19.37
2022-08-09T07:27:11.096Z,19.43
2022-08-09T07:29:58.620Z,19.45
2022-08-09T07:32:32.495Z,19.51
2022-08-09T07:35:11.484Z,19.68
2022-08-09T07:37:43.671Z,19.73
2022-08-09T07:40:18.701Z,19.79
2022-08-09T07:42:50.299Z,19.91
2022-08-09T07:45:39.882Z,19.92
2022-08-09T07:48:28.731Z,19.90
2022-08-09T07:51:09.395Z,20.02
2022-08-09T07:54:05.957Z,20.15
2022-08-09T07:56:34.437Z,20.21
2022-08-09T07:59:12.473Z,20.26
2022-08-09T08:01:52.864Z,20.25
2022-08-09T08:04:25.507Z,20.41
2022-08-09T08:07:00.186Z,20.40
2022-08-09T08:09:42.577Z,20.58
2022-08-09T08:12:36.468Z,20.66
2022-08-09T08:15:02.258Z,21.00
2022-08-09T08:17:52.023Z,21.13
2022-08-09T08:20:19.762Z,21.21
2022-08-09T08:22:58.725Z,21.43
2022-08-09T08:25:44.338Z,21.64
2022-08-09T08:28:15.340Z,21.74
2022-08-09T08:30:44.029Z,21.92
2022-08-09T08:36:12.123Z,22.15
2022-08-09T08:38:56.613Z,22.22
2022-08-09T08:41:30.809Z,22.27
2022-08-09T08:44:14.551Z,22.47
2022-08-09T08:47:03.364Z,22.55
2022-08-09T08:49:46.465Z,22.66
2022-08-09T08:52:48.639Z,22.72
2022-08-09T08:55:10.224Z,22.67
2022-08-09T08:57:39.336Z,22.70
2022-08-09T09:00:20.273Z,22.85
2022-08-09T09:03:08.241Z,22.96
2022-08-09T09:06:00.586Z,23.14
2022-08-09T09:08:40.641Z,23.24
2022-08-09T09:11:17.700Z,23.25
2022-08-09T09:13:57.207Z,23.20
2022-08-09T09:16:30.836Z,23.09
2022-08-09T09:22:14.080Z,23.31
2022-08-09T09:24:46.231Z,23.32
2022-08-09T09:28:03.058Z,23.46
2022-08-09T09:30:28.867Z,23.66
2022-08-09T09:33:15.625Z,23.57
2022-08-09T09:36:01.637Z,23.41
2022-08-09T09:38:43.704Z,23.53
2022-08-09T09:41:12.833Z,23.54
2022-08-09T09:44:12.266Z,23.61
2022-08-09T09:46:50.866Z,23.54
2022-08-09T09:49:23.572Z,23.67
2022-08-09T09:52:16.746Z,23.99
2022-08-09T09:55:16.165Z,23.93
2022-08-09T09:58:04.269Z,23.86
2022-08-09T10:00:55.124Z,24.03
2022-08-09T10:03:43.841Z,23.94
2022-08-09T10:06:12.917Z,24.12
2022-08-09T10:08:43.301Z,24.15
2022-08-09T10:12:00.376Z,24.30
2022-08-09T10:14:27.489Z,24.44
2022-08-09T10:17:23.902Z,24.65
2022-08-09T10:19:52.841Z,24.52
2022-08-09T10:22:32.683Z,24.58
2022-08-09T10:25:03.438Z,24.63
2022-08-09T10:27:45.232Z,24.63
2022-08-09T10:32:15.235Z,24.69
2022-08-09T10:34:04.327Z,24.78
2022-08-09T10:36:04.884Z,24.74
2022-08-09T10:38:55.489Z,25.02
2022-08-09T10:41:21.726Z,24.86
2022-08-09T10:43:59.500Z,24.86
2022-08-09T10:47:00.439Z,24.61
2022-08-09T10:49:42.485Z,24.56
2022-08-09T10:52:31.423Z,24.73
2022-08-09T10:55:04.986Z,24.81
2022-08-09T10:57:37.871Z,25.01
2022-08-09T11:00:34.640Z,25.18
2022-08-09T11:03:19.601Z,25.00
2022-08-09T11:06:18.745Z,25.17
2022-08-09T11:08:51.281Z,25.41
2022-08-09T11:11:22.990Z,25.54
2022-08-09T11:14:28.321Z,25.42
2022-08-09T11:16:58.122Z,25.11
2022-08-09T11:20:10.754Z,24.85
2022-08-09T11:23:02.873Z,24.49
2022-08-09T11:25:50.113Z,24.41
2022-08-09T11:28:56.664Z,24.51
2022-08-09T11:31:49.264Z,24.80
2022-08-09T11:34:33.272Z,24.83
2022-08-09T11:37:07.191Z,24.70
2022-08-09T11:40:06.712Z,24.72
2022-08-09T11:42:40.896Z,24.73
2022-08-09T11:45:21.884Z,24.90
2022-08-09T11:47:51.216Z,25.06
2022-08-09T11:50:55.856Z,25.02
2022-08-09T11:53:59.238Z,24.89
2022-08-09T11:56:42.209Z,24.96
2022-08-09T11:59:29.824Z,24.83
2022-08-09T12:02:17.502Z,24.93
2022-08-09T12:04:58.226Z,24.77
2022-08-09T12:07:29.141Z,24.69
2022-08-09T12:10:32.125Z,24.70
2022-08-09T12:13:03.483Z,24.66
2022-08-09T12:15:48.652Z,24.48
2022-08-09T12:18:29.838Z,24.43
2022-08-09T12:20:59.215Z,24.46
2022-08-09T12:23:56.141Z,24.31
2022-08-09T12:26:19.859Z,24.28
2022-08-09T12:29:14.151Z,24.33
2022-08-09T12:32:02.139Z,24.48
2022-08-09T12:34:36.641Z,24.50
2022-08-09T12:37:22.299Z,24.52
2022-08-09T12:40:02.917Z,24.54
2022-08-09T12:42:33.833Z,24.54
2022-08-09T12:45:32.089Z,24.33
2022-08-09T12:47:53.053Z,24.06
2022-08-09T12:50:23.548Z,24.08
2022-08-09T12:53:09.627Z,24.10
2022-08-09T12:56:14.198Z,24.11
2022-08-09T12:58:29.151Z,24.06
2022-08-09T13:00:58.905Z,24.13
2022-08-09T13:03:58.493Z,24.11
2022-08-09T13:06:26.108Z,24.01
2022-08-09T13:09:06.579Z,24.11
2022-08-09T13:11:39.195Z,24.13
2022-08-09T13:14:41.145Z,24.16
2022-08-09T13:17:02.204Z,24.23
2022-08-09T13:20:09.040Z,24.11
2022-08-09T13:22:36.587Z,24.30
2022-08-09T13:25:07.487Z,24.16
2022-08-09T13:27:40.128Z,24.07
2022-08-09T13:30:50.934Z,24.25
2022-08-09T13:33:17.319Z,24.44
2022-08-09T13:36:38.129Z,24.33
2022-08-09T13:38:57.608Z,24.19
2022-08-09T13:41:54.535Z,24.38
2022-08-09T13:44:17.113Z,24.75
2022-08-09T13:47:29.188Z,24.96
2022-08-09T13:49:55.723Z,25.13
2022-08-09T13:52:26.298Z,25.40
2022-08-09T13:55:00.682Z,25.59
2022-08-09T13:57:39.815Z,25.57
2022-08-09T14:00:15.562Z,25.67
2022-08-09T14:03:03.093Z,25.98
2022-08-09T14:05:57.161Z,26.26
2022-08-09T14:08:26.942Z,26.14
2022-08-09T14:10:56.858Z,26.53
2022-08-09T14:14:14.918Z,26.97
2022-08-09T14:16:17.555Z,27.06
2022-08-09T14:18:50.630Z,27.55
2022-08-09T14:21:24.489Z,27.61
2022-08-09T14:24:10.091Z,27.89
2022-08-09T14:26:41.744Z,27.97
2022-08-09T14:30:03.904Z,27.47
2022-08-09T14:32:13.399Z,27.99
2022-08-09T14:34:45.200Z,27.71
2022-08-09T14:37:16.605Z,27.29
2022-08-09T14:39:48.618Z,26.70
2022-08-09T14:42:32.121Z,26.37
2022-08-09T14:46:39.057Z,26.15
2022-08-09T14:47:57.861Z,25.88
2022-08-09T14:50:31.183Z,25.61
2022-08-09T14:53:01.625Z,25.97
2022-08-09T14:55:32.062Z,26.20
2022-08-09T14:58:01.037Z,26.25
2022-08-09T15:00:31.612Z,26.48
2022-08-09T15:03:00.294Z,26.82
2022-08-09T15:05:29.593Z,26.86
2022-08-09T15:07:58.518Z,26.62
2022-08-09T15:10:31.601Z,26.32
2022-08-09T15:13:03.755Z,26.36
2022-08-09T15:15:39.527Z,26.06
2022-08-09T15:18:12.406Z,25.86
2022-08-09T15:21:58.457Z,25.52
2022-08-09T15:24:00.873Z,25.23
2022-08-09T15:26:31.465Z,25.02
2022-08-09T15:31:47.407Z,24.55
2022-08-09T15:34:32.372Z,24.31
2022-08-09T15:37:04.190Z,24.36
2022-08-09T15:39:53.343Z,24.30
2022-08-09T15:42:24.984Z,24.16
2022-08-09T15:44:53.134Z,24.05
2022-08-09T15:47:32.826Z,23.96
2022-08-09T15:50:14.971Z,23.94
2022-08-09T15:52:54.914Z,24.32
2022-08-09T15:55:34.560Z,24.75
2022-08-09T15:58:30.797Z,24.94
2022-08-09T16:01:05.388Z,24.95
2022-08-09T16:03:38.796Z,24.73
2022-08-09T16:06:27.396Z,24.50
2022-08-09T16:09:00.913Z,24.28
2022-08-09T16:11:30.956Z,24.41
2022-08-09T16:14:08.068Z,24.49
2022-08-09T16:16:38.010Z,24.66
2022-08-09T16:19:07.674Z,24.72
2022-08-09T16:21:36.991Z,24.52
2022-08-09T16:24:05.507Z,24.52
2022-08-09T16:26:41.206Z,24.19
2022-08-09T16:29:13.038Z,24.08
2022-08-09T16:32:17.854Z,23.99
2022-08-09T16:34:44.761Z,24.17
2022-08-09T16:37:55.956Z,24.22
2022-08-09T16:40:29.727Z,24.43
2022-08-09T16:43:06.187Z,24.51
2022-08-09T16:45:41.589Z,24.62
2022-08-09T16:48:37.913Z,24.62
2022-08-09T16:51:08.394Z,24.47
2022-08-09T16:54:02.484Z,24.60
2022-08-09T16:56:30.504Z,24.47
2022-08-09T16:58:59.560Z,24.31
2022-08-09T17:01:33.809Z,24.16
2022-08-09T17:04:02.159Z,24.12
2022-08-09T17:06:47.373Z,24.04
2022-08-09T17:09:43.893Z,23.86
2022-08-09T17:12:09.525Z,23.57
2022-08-09T17:14:37.469Z,23.29
2022-08-09T17:17:13.021Z,23.29
2022-08-09T17:20:33.065Z,23.01
2022-08-09T17:22:51.768Z,22.89
2022-08-09T17:25:22.340Z,22.69
2022-08-09T17:27:54.428Z,22.63
2022-08-09T17:30:25.519Z,22.47
2022-08-09T17:32:57.443Z,22.33
2022-08-09T17:35:29.040Z,22.22
2022-08-09T17:38:02.199Z,22.00
2022-08-09T17:40:41.163Z,21.82
2022-08-09T17:43:32.196Z,21.77
2022-08-09T17:46:03.256Z,21.70
2022-08-09T17:48:35.026Z,21.50
2022-08-09T17:51:17.635Z,21.40
2022-08-09T17:53:51.953Z,21.31
2022-08-09T17:56:27.054Z,21.19
2022-08-09T17:58:59.719Z,21.10
2022-08-09T18:01:58.115Z,21.05
2022-08-09T18:04:17.722Z,20.98
2022-08-09T18:06:54.235Z,20.88
2022-08-09T18:09:40.481Z,20.74
2022-08-09T18:12:17.446Z,20.73
2022-08-09T18:14:53.455Z,20.67
2022-08-09T18:17:27.188Z,20.52
2022-08-09T18:20:54.367Z,20.44
2022-08-09T18:23:05.011Z,20.39
2022-08-09T18:25:51.022Z,20.35
2022-08-09T18:30:35.864Z,20.28
2022-08-09T18:31:11.126Z,20.05
2022-08-09T18:33:40.672Z,20.14
2022-08-09T18:36:14.288Z,19.99
2022-08-09T18:39:00.944Z,19.92
2022-08-09T18:41:34.286Z,19.94
2022-08-09T18:44:10.618Z,19.96
2022-08-09T18:46:46.027Z,19.90
2022-08-09T18:49:19.909Z,19.73
2022-08-09T18:51:55.412Z,19.76
2022-08-09T18:54:28.379Z,19.69
2022-08-09T18:56:56.847Z,19.56
2022-08-09T18:59:48.515Z,19.49
2022-08-09T19:02:18.615Z,19.51
2022-08-09T19:05:04.054Z,19.45
2022-08-09T19:08:10.104Z,19.29
2022-08-09T19:10:43.723Z,19.25
2022-08-09T19:13:20.726Z,19.18
2022-08-09T19:15:52.862Z,19.15
2022-08-09T19:18:33.309Z,19.11
2022-08-09T19:21:09.423Z,19.11
2022-08-09T19:24:32.522Z,19.11
2022-08-09T19:26:32.337Z,18.99
2022-08-09T19:29:03.676Z,18.80
2022-08-09T19:31:46.360Z,18.65
2022-08-09T19:34:22.473Z,18.41
2022-08-09T19:36:51.952Z,17.98
2022-08-09T19:39:29.225Z,17.68
2022-08-09T19:42:14.432Z,17.42
2022-08-09T19:44:43.713Z,17.30
2022-08-09T19:47:22.727Z,17.40
2022-08-09T19:50:10.331Z,17.48
2022-08-09T19:52:51.512Z,17.50
2022-08-09T19:55:25.634Z,17.19
2022-08-09T19:57:58.478Z,17.07
2022-08-09T20:00:26.494Z,16.83
2022-08-09T20:04:18.548Z,16.97
2022-08-09T20:05:46.883Z,17.18
2022-08-09T20:08:33.525Z,17.23
2022-08-09T20:11:05.194Z,17.19
2022-08-09T20:13:37.026Z,17.09
2022-08-09T20:16:32.858Z,17.01
2022-08-09T20:19:43.047Z,16.60
2022-08-09T20:21:56.402Z,16.46
2022-08-09T20:24:31.754Z,16.49
2022-08-09T20:27:07.894Z,16.56
2022-08-09T20:29:38.151Z,16.39
2022-08-09T20:32:30.026Z,16.24
2022-08-09T20:34:54.831Z,16.20
2022-08-09T20:37:22.942Z,16.24
2022-08-09T20:40:16.833Z,16.20
2022-08-09T20:42:46.576Z,16.09
2022-08-09T20:46:00.803Z,15.93
2022-08-09T20:48:21.906Z,15.70
2022-08-09T20:50:55.699Z,15.66
2022-08-09T20:53:35.424Z,15.36
2022-08-09T20:56:06.567Z,15.34
2022-08-09T20:58:43.500Z,15.15
2022-08-09T21:01:32.896Z,15.19
2022-08-09T21:04:08.107Z,15.32
2022-08-09T21:06:49.166Z,15.42
2022-08-09T21:09:32.776Z,15.58
2022-08-09T21:14:40.188Z,15.51
2022-08-09T21:18:11.600Z,15.53
2022-08-09T21:20:17.072Z,15.47
2022-08-09T21:22:46.728Z,15.33
2022-08-09T21:25:38.187Z,15.07
2022-08-09T21:28:07.304Z,15.00
2022-08-09T21:30:42.362Z,15.03
2022-08-09T21:33:10.479Z,14.83
2022-08-09T21:35:40.731Z,14.50
2022-08-09T21:38:31.017Z,14.47
2022-08-09T21:41:00.436Z,14.42
2022-08-09T21:43:56.052Z,14.40
2022-08-09T21:46:17.911Z,14.42
2022-08-09T21:48:49.417Z,14.53
2022-08-09T21:51:24.097Z,14.60
2022-08-09T21:53:54.777Z,14.69
2022-08-09T21:56:43.613Z,14.68
2022-08-09T21:59:11.830Z,14.73
2022-08-09T22:02:00.226Z,14.56
2022-08-09T22:04:44.797Z,14.54
2022-08-09T22:07:35.156Z,14.68
2022-08-09T22:10:07.684Z,14.65
2022-08-09T22:12:38.081Z,14.64
2022-08-09T22:15:08.926Z,14.52
2022-08-09T22:17:47.204Z,14.44
2022-08-09T22:20:21.702Z,14.32
2022-08-09T22:22:55.636Z,14.18
2022-08-09T22:26:05.419Z,13.85
2022-08-09T22:28:11.646Z,13.87
2022-08-09T22:30:48.588Z,13.75
2022-08-09T22:33:19.606Z,13.66
2022-08-09T22:36:01.767Z,13.48
2022-08-09T22:38:31.474Z,13.31
2022-08-09T22:40:59.418Z,13.20
2022-08-09T22:44:02.035Z,13.26
2022-08-09T22:48:14.133Z,13.44
2022-08-09T22:49:09.526Z,13.48
2022-08-09T22:51:43.517Z,13.64
2022-08-09T22:54:21.360Z,13.45
2022-08-09T22:56:50.916Z,13.34
2022-08-09T22:59:55.353Z,13.43
2022-08-09T23:02:15.730Z,13.37
2022-08-09T23:04:53.991Z,13.44
2022-08-09T23:08:22.916Z,13.38
2022-08-09T23:10:28.938Z,13.44
2022-08-09T23:12:56.977Z,13.49
2022-08-09T23:15:25.395Z,13.57
2022-08-09T23:17:53.571Z,13.44
2022-08-09T23:20:23.987Z,13.42
2022-08-09T23:22:52.010Z,13.38
2022-08-09T23:25:20.032Z,13.42
2022-08-09T23:27:57.503Z,13.40
2022-08-09T23:30:35.629Z,13.46
2022-08-09T23:33:03.568Z,13.58
2022-08-09T23:36:05.602Z,13.52
2022-08-09T23:38:20.827Z,13.38
2022-08-09T23:40:51.455Z,13.05
2022-08-09T23:43:19.567Z,13.01
2022-08-09T23:45:47.438Z,12.80
2022-08-09T23:48:15.324Z,12.57
2022-08-09T23:50:44.639Z,12.49
2022-08-09T23:53:12.525Z,12.60
2022-08-09T23:55:40.361Z,12.81
2022-08-09T23:58:25.766Z,12.95
